AirNav   Pilot Hours Calculator
 
 822 users online  

2WN3 Curns Airport
New London, Wisconsin, USA

GOING TO NEW LONDON?


FAA INFORMATION EFFECTIVE 26 JANUARY 2023

Location

FAA Identifier: 2WN3
Lat/Long: 44-21-28.3440N 088-45-40.9800W
44-21.472400N 088-45.683000W
44.3578733,-88.7613833
(estimated)
Elevation: 790 ft. / 241 m (estimated)
Variation: 02W ()
From city: 1 mile N of NEW LONDON, WI
Time zone: UTC -6 (UTC -5 during Daylight Saving Time)
Zip code: 54961

Airport Operations

Airport use: Private use. Permission required prior to landing
Activation date: 06/2001
Control tower: no
ARTCC: MINNEAPOLIS CENTER
FSS: GREEN BAY FLIGHT SERVICE STATION
Attendance: UNATNDD
Wind indicator: yes
Segmented circle: no

Airport Communications

WX AWOS-3 at PCZ (11 nm W): 118.625 (920-867-2407)
WX AWOS-3 at ATW (12 nm SE): PHONE 920-832-2597
WX AWOS-3 at CLI (15 nm N): 120.675 (715-823-7691)

Nearby radio navigation aids

VOR radial/distance  VOR name  Freq  Var
OSHr336/23.8OSHKOSH VORTAC116.7502E
GRBr243/27.0GREEN BAY VORTAC115.5001E

Airport Services

Runway Information

Runway 9/27

Dimensions: 2500 x 60 ft. / 762 x 18 m
Surface: turf
Operational restrictions: CONFIRM RY CONDITIONS WITH ARPT MANAGER 920-982-2168.
RUNWAY 9  RUNWAY 27
Traffic pattern: leftleft
Displaced threshold: no660 ft.
DSPLCD THLD MKD WITH HALF BARRELS.
Obstructions: none32 ft. pline, marked and lighted, 40 ft. from runway

Runway 18/36

Dimensions: 1001 x 60 ft. / 305 x 18 m
Surface: turf
Operational restrictions: NOT PLOWED WINTER DEC-MAR
RUNWAY 18  RUNWAY 36
Traffic pattern: leftleft

Airport Ownership and Management from official FAA records

Ownership: Privately-owned
Owner: JIM CURNS
E 9255 LYONS RD
NEW LONDON, WI 54961
Phone 920-982-6882
Manager: JIM CURNS
E 9255 LYONS RD
NEW LONDON, WI 54961
Phone 920-982-2168

Airport Operational Statistics

Aircraft based on the field: 2
Single engine airplanes: 1
Ultralights: 1
    

Additional Remarks

DEER, TURKEY AND OTHER WILDLIFE INVOF OF RY.
CENTER PIVOT IRRIGATION MAY BLOCK RY FROM USE AT TIMES.
TREES 60-70 FT HIGH 300 FT W OF RWY 09.
FOR CD CTC MINNEAPOLIS ARTCC AT 651-463-5588.

Instrument Procedures

There are no published instrument procedures at 2WN3.

Some nearby airports with instrument procedures:

KPCZ - Waupaca Municipal Airport (11 nm W)
KATW - Appleton International Airport (12 nm SE)
KCLI - Clintonville Municipal Airport (15 nm N)
KOSH - Wittman Regional Airport (24 nm S)
KEZS - Shawano Municipal Airport (27 nm N)
 
Loc | Ops | Rwys | IFR | FBO | Links
Com | Nav | Svcs | Stats | Notes
Area around 2WN3 (Curns Airport)
 
Road maps at: MapQuest Bing Google
 
Aerial photo
No photo
 
Sectional chart

 
Airport distance calculator
Flying to Curns Airport? Find the distance to fly.

From to 2WN3

Sunrise and sunset
Times for 27-Jan-2023
 Local
(UTC-6)
 Zulu
(UTC)
Morning civil twilight06:4812:48
Sunrise07:2013:20
Sunset16:5622:56
Evening civil twilight17:2723:27

Current date and time
Zulu (UTC)  27-Jan-2023 12:23:53
Local (UTC-6)  27-Jan-2023 06:23:53
 
METAR
KPCZ 
11nm W 
271155Z AUTO 13008KT 10SM SCT033 BKN039 OVC049 M09/M12 A2964 RMK AO2 T10951122 11092 21114
KATW 
12nm SE 
271145Z 16009KT 10SM SCT110 M11/M14 A2966
KCLI 
15nm N 
271155Z AUTO 17008KT 10SM SCT044 BKN070 OVC110 M11/M13 A2967 RMK AO2 T11101133 11106 21130
TAF
KATW 
12nm SE 
271123Z 2712/2812 18010G17KT P6SM SCT020 OVC060 WS020/22040KT TEMPO 2712/2714 3SM -SN BR OVC020 FM271400 18016G22KT 2SM -SN BR SCT012 OVC020 WS020/22045KT TEMPO 2714/2718 3/4SM -SN BR OVC012 FM271900 24017G27KT P6SM OVC016 FM272300 28017G26KT P6SM BKN026 FM280200 28011G18KT P6SM BKN060
NOTAMs
Click for the latest NOTAMs
NOTAMs are issued by the DoD/FAA and will open in a separate window not controlled by AirNav.

 

 
 

Would you like to see your business listed on this page?

 If your business provides an interesting product or service to pilots, flight crews, aircraft, or users of the Curns Airport, you should consider listing it here.  To start the listing process, click on the button below
 
Add a business
 

Other Pages about Curns Airport

Update a link
 
Copyright © AirNav, LLC. All rights reserved. Privacy Policy  Contact